Weather observations for the past three days for
Land O' Lakes, Kings Land O' Lakes Airport
Imperial (Metric)
Date Time (cdt) Wind (mph) Vis. (mi.) Weather Sky Cond. Temperature (ºF) Relative Humidity Wind Chill (°F) Heat Index (°F) Pressure Precipitation (in)
Air Dwpt 6 hour altimeter (in) sea level (mb) 1 hr 3 hr 6 hr
Max. Min.
05 05:35 NW 3 10.00 Mostly Cloudy BKN060 35.6 27.5 72% 29.63 0.0
05 05:15 NW 8 10.00 Mostly Cloudy SCT029 SCT035 BKN060 35.6 27.9 73% 30 29.62 0.0
05 04:55 NW 3 10.00 Overcast SCT029 BKN035 OVC060 36.1 28.4 74% 29.62 0.0
05 04:35 W 3 10.00 Overcast SCT025 SCT034 OVC060 36.5 28.4 73% 29.61 0.0
05 04:15 W 5 10.00 Overcast SCT025 SCT044 OVC060 36.5 28.4 73% 33 29.61 0.0
05 03:55 Calm 10.00 Overcast SCT046 OVC070 36.5 28 71% 29.6 0.0
05 03:35 NW 5 10.00 Mostly Cloudy BKN046 BKN049 BKN065 36.5 27.5 70% 33 29.6 0.0
05 03:15 NW 6 10.00 Mostly Cloudy SCT045 BKN065 36.7 27.5 69% 33 29.6 0.0
05 02:55 NW 8 10.00 Overcast SCT045 OVC065 37.4 27.7 68% 32 29.6 0.0
05 02:35 NW 7 10.00 Overcast OVC060 37.4 27.5 68% 33 29.6 0.0
05 02:15 W 10 10.00 Mostly Cloudy BKN050 37.8 27.5 67% 31 29.59 0.0
05 01:55 NW 7 10.00 Mostly Cloudy SCT039 SCT048 BKN060 37.9 27.1 65% 33 29.6 0.0
05 01:35 NW 8 10.00 Overcast SCT039 BKN050 OVC060 39.2 26.4 60% 34 29.6 0.0
05 01:15 W 6 10.00 Overcast OVC046 39.9 23.9 53% 36 29.6 0.0
05 00:55 NW 5 10.00 Overcast OVC046 40.1 23.5 49.5 39.7 52% 37 29.59 0.0
05 00:35 NW 6 10.00 Mostly Cloudy BKN046 BKN050 BKN070 39.7 23.4 52% 36 29.59 0.0
05 00:15 W 8 10.00 Overcast SCT050 OVC070 40.1 23 51% 35 29.58 0.0
04 23:55 NW 10 G 17 10.00 Mostly Cloudy SCT050 BKN070 40.5 22.6 49% 35 29.57 0.0
04 23:35 W 6 G 16 10.00 Overcast OVC060 41 22.3 47% 38 29.57 0.0
04 23:10 W 10 G 24 10.00 Overcast OVC060 41.5 21.9 46% 36 29.57 0.0
04 22:55 W 12 G 23 10.00 Overcast SCT048 OVC050 41.9 21.7 45% 36 29.57 0.0
04 22:35 NW 13 G 21 10.00 Overcast SCT046 OVC060 42.4 25 50% 36 29.57 0.0
04 22:15 NW 14 G 22 10.00 Overcast OVC060 42.8 24.8 49% 36 29.56 0.0
04 21:55 NW 10 G 22 10.00 Overcast SCT046 OVC060 43.2 26.1 51% 38 29.56 0.0
04 21:35 NW 10 G 17 10.00 Overcast SCT046 OVC060 43.3 27.5 54% 38 29.55 0.0
04 21:15 NW 8 G 17 10.00 Overcast OVC060 43.2 27.5 54% 39 29.55 0.0
04 20:55 NW 12 G 21 10.00 Mostly Cloudy BKN060 43.7 27.3 53% 38 29.54 0.0
04 20:35 NW 12 G 21 10.00 Mostly Cloudy BKN060 44.2 27.1 51% 39 29.53 0.0
04 20:15 NW 13 G 20 10.00 Mostly Cloudy BKN060 45.1 27.3 50% 40 29.52 0.0
04 19:55 NW 12 G 18 10.00 Mostly Cloudy BKN070 45.9 26.4 47% 41 29.51 0.0
04 19:35 NW 13 G 16 10.00 Mostly Cloudy BKN070 47.3 26.1 44% 42 29.5 0.0
04 19:15 NW 8 G 20 10.00 Partly Cloudy SCT070 48.2 26.4 43% 45 29.49 0.0
04 18:55 NW 15 G 22 10.00 Fair CLR 49.6 26.8 63.1 49.6 41% 45 29.48 0.0
04 18:35 NW 14 G 24 10.00 Partly Cloudy SCT070 50.2 28 42% 29.48 0.0
04 18:15 NW 14 G 24 10.00 Mostly Cloudy BKN070 BKN080 52.3 27.3 38% 29.47 0.0
04 17:55 NW 12 G 20 10.00 Mostly Cloudy SCT060 BKN080 52 28.9 41% 29.46 0.0
04 17:35 NW 13 G 25 10.00 Partly Cloudy SCT080 SCT090 53.6 28.6 38% 29.44 0.0
04 17:15 NW 9 G 23 10.00 Mostly Cloudy SCT065 BKN090 57 29.5 35% 29.43 0.0
04 16:55 NW 13 G 22 10.00 Partly Cloudy SCT075 SCT085 56.3 30 37% 29.42 0.0
04 16:35 NW 17 G 23 10.00 Mostly Cloudy SCT075 BKN085 56.1 31.3 39% 29.41 0.0
04 16:15 NW 12 G 21 10.00 Mostly Cloudy SCT075 BKN085 55.6 30.9 39% 29.4 0.0
04 15:55 NW 12 G 21 10.00 Overcast BKN065 OVC085 56.5 30.9 38% 29.39 0.0
04 15:35 NW 14 G 21 10.00 Mostly Cloudy SCT065 BKN085 59.7 29.8 32% 29.38 0.0
04 15:15 W 12 G 18 10.00 Mostly Cloudy BKN065 BKN085 59.4 28.8 31% 29.37 0.0
04 14:55 NW 15 G 25 10.00 Mostly Cloudy BKN065 BKN085 60.1 28.8 30% 29.37 0.0
04 14:35 W 13 G 18 10.00 Mostly Cloudy SCT060 BKN075 BKN095 60.1 30.4 33% 29.37 0.0
04 14:15 NW 10 G 20 10.00 Mostly Cloudy BKN060 BKN075 61 31.5 33% 29.37 0.0
04 13:55 W 10 G 25 10.00 Partly Cloudy SCT070 SCT080 60.8 30.7 32% 29.36 0.0
04 13:35 W 15 G 24 10.00 Mostly Cloudy SCT070 BKN080 61.2 31.6 33% 29.36 0.0
04 13:15 W 12 G 21 10.00 Partly Cloudy SCT060 SCT075 59.9 31.1 34% 29.35 0.0
04 12:55 W 13 G 25 10.00 Partly Cloudy SCT050 SCT065 60.8 31.1 60.8 52.3 33% 29.36 0.0
04 12:35 W 13 G 21 10.00 Mostly Cloudy SCT045 BKN050 BKN070 59.4 37 44% 29.35 0.0
04 12:15 W 13 G 20 10.00 Mostly Cloudy SCT050 BKN060 BKN120 59.2 37.8 45% 29.35 0.0
04 11:55 NW 7 G 16 10.00 Mostly Cloudy SCT047 SCT060 BKN110 57.6 38.5 49% 29.34 0.0
04 11:35 W 9 10.00 Mostly Cloudy BKN095 BKN120 57 38.1 49% 29.34 0.0
04 11:15 W 9 10.00 Mostly Cloudy BKN095 BKN120 56.5 38.7 51% 29.33 0.0
04 10:55 W 7 10.00 Overcast SCT065 OVC095 55.2 38.5 53% 29.33 0.0
04 10:35 W 8 G 21 10.00 Overcast SCT065 BKN095 OVC120 55.2 39 55% 29.34 0.0
04 10:15 NW 13 G 20 10.00 Overcast SCT065 SCT095 OVC110 55.4 38.7 54% 29.33 0.0
04 09:55 NW 14 G 28 10.00 Mostly Cloudy BKN110 56.7 37.6 49% 29.33 0.0
04 09:35 W 15 G 24 10.00 Mostly Cloudy SCT095 BKN110 60.8 32.2 34% 29.3 0.0
04 09:15 W 12 G 21 10.00 Mostly Cloudy SCT050 SCT065 BKN095 59.7 32.2 35% 29.3 0.0
04 08:55 SW 13 G 21 10.00 Partly Cloudy SCT100 SCT120 59.9 32 35% 29.3 0.0
04 08:35 SW 10 G 22 10.00 Fair CLR 59 31.5 35% 29.3 0.0
04 08:15 SW 13 G 20 10.00 Partly Cloudy SCT080 SCT090 SCT120 57.4 31.1 37% 29.3 0.0
04 07:55 SW 10 G 18 10.00 Mostly Cloudy SCT050 SCT070 BKN085 56.5 30.4 37% 29.3 0.0
04 07:35 SW 9 G 17 10.00 Mostly Cloudy BKN085 BKN110 56.3 29.1 35% 29.32 0.0
04 06:50 SW 6 10.00 Partly Cloudy SCT110 51.4 29.8 51.4 39.7 44% 29.33 0.0
04 06:35 SW 6 10.00 Fair CLR 50.4 29.1 44% 29.34 0.0
04 06:15 S 3 10.00 Fair CLR 49.8 28.6 44% 29.35 0.0
04 05:55 S 7 10.00 Fair CLR 49.3 28.4 45% 47 29.36 0.0
04 05:35 S 6 10.00 Fair CLR 49.1 28.2 45% 47 29.37 0.0
04 05:15 S 5 10.00 Fair CLR 49.1 28 44% 48 29.39 0.0
04 04:55 S 6 10.00 Fair CLR 48.6 27.9 45% 47 29.4 0.0
04 04:35 S 3 10.00 Fair CLR 47.8 27.7 46% 29.42 0.0
04 04:15 S 3 10.00 Fair CLR 47.3 27.5 46% 29.43 0.0
04 03:55 S 5 10.00 Partly Cloudy SCT120 46.2 27 47% 45 29.44 0.0
04 03:35 S 3 10.00 Partly Cloudy SCT120 45.5 26.6 48% 29.46 0.0
04 03:15 S 3 10.00 Fair CLR 43.9 26.2 50% 29.47 0.0
04 02:55 Calm 10.00 Fair CLR 43.3 25.9 50% 29.48 0.0
04 02:35 Calm 10.00 Fair CLR 43.3 25.5 50% 29.49 0.0
04 02:15 SW 3 10.00 Fair CLR 43.7 25.2 48% 29.5 0.0
04 01:55 Calm 10.00 Fair CLR 40.6 27.3 59% 29.51 0.0
04 01:35 Calm 10.00 Fair CLR 41.7 26.6 55% 29.52 0.0
04 01:15 S 5 10.00 Fair CLR 40.3 25.5 56% 38 29.53 0.0
04 00:55 Calm 10.00 Fair CLR 42.6 25.2 59.9 36.1 50% 29.55 0.0
04 00:35 Calm 10.00 Fair CLR 43 24.8 49% 29.56 0.0
04 00:15 S 3 10.00 Fair CLR 42.4 25.9 52% 29.56 0.0
03 23:55 S 3 10.00 Fair CLR 39.4 27.9 63% 29.57 0.0
03 23:35 Calm 10.00 Fair CLR 36.1 31.1 82% 29.58 0.0
03 23:15 Calm 10.00 Fair CLR 37.6 30.9 77% 29.59 0.0
03 22:55 Calm 10.00 Fair CLR 38.7 32.4 78% 29.6 0.0
03 22:35 Calm 10.00 Fair CLR 40.5 32.2 72% 29.6 0.0
03 22:15 Calm 10.00 Fair CLR 41 30.4 66% 29.61 0.0
03 21:55 Calm 10.00 Fair CLR 43.7 30.2 59% 29.62 0.0
03 21:35 Calm 10.00 Fair CLR 43.7 29.3 57% 29.62 0.0
03 21:15 Calm 10.00 Fair CLR 43.3 26.4 51% 29.62 0.0
03 20:55 Calm 10.00 Fair CLR 45 25.2 46% 29.62 0.0
03 20:35 Calm 10.00 Fair CLR 47.5 23.7 39% 29.62 0.0
03 20:15 Calm 10.00 Fair CLR 51.1 22.1 32% 29.62 0.0
03 19:55 Calm 10.00 Fair CLR 55.6 19.2 24% 29.62 0.0
03 19:35 NW 3 10.00 Fair CLR 56.8 18.1 22% 29.62 0.0
03 19:15 NW 5 10.00 Fair CLR 58.5 16.9 20% 29.63 0.0
03 18:55 NW 8 10.00 Fair CLR 59.9 18 68.2 59.9 19% 29.62 0.0
03 18:35 NW 10 G 20 10.00 Fair CLR 61 19.4 20% 29.62 0.0
03 18:15 NW 9 G 20 10.00 Fair CLR 61.7 22.3 22% 29.61 0.0
03 17:55 N 15 G 18 10.00 Fair CLR 63 26.8 25% 29.6 0.0
03 17:35 NW 13 G 22 10.00 Fair CLR 63.7 28.6 27% 29.6 0.0
03 17:15 NW 9 G 17 10.00 Fair CLR 64.2 28.9 26% 29.59 0.0
03 16:55 NW 12 G 20 10.00 Fair CLR 65.3 29.8 26% 29.59 0.0
03 16:35 NW 13 G 23 10.00 Fair CLR 66 31.8 28% 29.59 0.0
03 16:15 N 15 G 22 10.00 Partly Cloudy SCT080 66.4 31.5 27% 29.58 0.0
03 15:55 W 10 G 17 10.00 Partly Cloudy SCT080 SCT090 64.8 30 27% 29.58 0.0
03 15:35 W 10 G 16 10.00 Fair CLR 67.8 30.4 25% 29.58 0.0
03 15:15 W 8 G 18 10.00 Partly Cloudy SCT080 67.3 30.7 26% 29.59 0.0
03 14:55 W 13 G 18 10.00 Partly Cloudy SCT080 SCT090 66.6 31.8 27% 29.59 0.0
03 14:35 W 10 G 18 10.00 Partly Cloudy SCT080 SCT090 67.5 32.4 27% 29.59 0.0
03 14:15 W 10 G 16 10.00 Partly Cloudy SCT070 SCT090 67.3 32.5 28% 29.6 0.0
03 13:55 W 12 G 17 10.00 Partly Cloudy SCT070 SCT080 68 32.9 27% 29.61 0.0
03 13:35 W 9 G 16 10.00 Partly Cloudy SCT070 SCT090 SCT120 66 33.1 29% 29.61 0.0
03 13:15 NW 8 G 16 10.00 Mostly Cloudy BKN070 BKN085 63.9 32.5 31% 29.61 0.0
03 12:55 NW 12 G 17 10.00 Partly Cloudy SCT070 SCT085 64.4 34 66 45.1 32% 29.61 0.0
03 12:35 W 8 G 16 10.00 Partly Cloudy SCT055 SCT070 63.1 33.8 34% 29.62 0.0
03 12:15 W 8 G 17 10.00 Mostly Cloudy BKN065 BKN080 64.2 35.8 35% 29.63 0.0
03 11:55 NW 10 G 18 10.00 Fair CLR 63.5 35.2 35% 29.63 0.0
03 11:35 W 8 10.00 Fair CLR 63 35.4 36% 29.64 0.0
03 11:15 W 10 G 18 10.00 Fair CLR 63 36.3 37% 29.64 0.0
03 10:55 W 10 G 17 10.00 Fair CLR 61 36.1 40% 29.65 0.0
03 10:35 NW 8 G 20 10.00 Fair CLR 60.6 36.3 40% 29.66 0.0
03 10:15 SW 7 G 12 10.00 Fair CLR 59.4 36.9 43% 29.66 0.0
03 09:55 W 7 10.00 Mostly Cloudy BKN070 BKN080 59.2 37.2 44% 29.67 0.0
03 09:35 W 3 10.00 Mostly Cloudy BKN070 BKN100 57.7 37 46% 29.67 0.0
03 09:15 SW 7 10.00 Mostly Cloudy BKN100 55.8 37.4 50% 29.68 0.0
03 08:55 SW 3 10.00 Overcast OVC100 54 37.4 54% 29.69 0.0
03 08:35 SW 6 10.00 Overcast OVC100 52.7 37.8 57% 29.69 0.0
03 08:15 SW 6 10.00 Overcast OVC100 52 39 61% 29.69 0.0
03 07:55 Calm 10.00 Mostly Cloudy BKN100 50.7 39 64% 29.7 0.0
03 07:35 Calm 10.00 Mostly Cloudy BKN100 48.4 39.2 71% 29.7 0.0
03 07:15 Calm 10.00 Mostly Cloudy BKN110 45.9 39.2 78% 29.7 0.0
03 06:55 S 3 10.00 Overcast SCT065 OVC100 45.1 40.1 49.3 42.1 83% 29.7 0.0
03 06:35 Calm 10.00 Overcast OVC065 43.7 41 90% 29.7 0.0
03 06:15 Calm 10.00 Overcast SCT055 BKN065 OVC075 44.8 41 87% 29.7 0.0
03 05:35 Calm 10.00 Drizzle OVC065 46.4 38.1 73% 29.71 0.0
03 05:15 Calm 10.00 Light Rain BKN070 BKN095 OVC120 46.9 37.4 70% 29.71 0.0
03 04:55 Calm 10.00 Overcast SCT070 OVC120 47.3 37.4 69% 29.71 0.0
03 04:35 Calm 10.00 Light Drizzle SCT048 OVC070 48.2 37.4 66% 29.72 0.0
03 04:15 SW 5 10.00 Overcast SCT040 SCT048 OVC055 48.4 37.8 67% 47 29.74 0.0
03 03:55 SW 5 10.00 Light Rain OVC042 48.2 37.9 68% 47 29.74 0.0
03 03:35 Calm 10.00 Light Drizzle BKN046 BKN055 OVC065 48.4 38.1 68% 29.74 0.0
03 03:15 W 3 10.00 Light Drizzle SCT048 BKN055 OVC075 49.1 36.5 62% 29.74 0.0
03 02:55 W 3 10.00 Overcast SCT048 BKN065 OVC090 49.1 35.4 59% 29.74 0.0
03 02:35 SW 3 10.00 Overcast SCT050 SCT065 OVC090 47.3 33.1 58% 29.74 0.0
03 02:15 SW 5 10.00 Mostly Cloudy SCT045 SCT060 BKN100 44.8 31.6 60% 43 29.75 0.0
03 01:55 Calm 10.00 Partly Cloudy SCT065 SCT100 43.2 31.3 63% 29.76 0.0
03 01:35 W 3 10.00 Partly Cloudy SCT055 SCT065 SCT100 45.9 30.6 55% 29.77 0.0
03 01:15 Calm 10.00 Mostly Cloudy SCT065 BKN100 43 30.7 62% 29.77 0.0
03 00:55 Calm 10.00 Overcast OVC075 43.2 30.7 56.3 39.9 62% 29.77 0.0
03 00:30 Calm 10.00 Overcast OVC070 43.7 29.5 57% 29.78 0.0
03 00:15 Calm 10.00 Overcast OVC070 43.3 29.5 58% 29.78 0.0
02 23:55 Calm 10.00 Overcast OVC070 40.3 32 72% 29.79 0.0
02 23:35 Calm 10.00 Overcast BKN070 BKN100 OVC120 40.3 29.7 66% 29.79 0.0
02 23:15 Calm 10.00 Overcast SCT075 BKN100 OVC120 40.3 30.2 67% 29.8 0.0
02 22:55 Calm 10.00 Overcast BKN070 OVC085 40.5 29.7 65% 29.81 0.0
02 22:35 Calm 10.00 Mostly Cloudy SCT080 BKN085 BKN120 40.5 28.9 64% 29.82 0.0
02 22:10 Calm 10.00 Partly Cloudy SCT090 41.2 27.9 59% 29.83 0.0
02 21:55 Calm 10.00 Partly Cloudy SCT100 42.1 28 58% 29.83 0.0
02 21:35 Calm 10.00 Mostly Cloudy SCT090 BKN100 43.3 28.2 55% 29.84 0.0
02 21:15 Calm 10.00 Mostly Cloudy BKN090 43.7 28.8 56% 29.85 0.0
02 20:50 Calm 10.00 Mostly Cloudy BKN090 46.2 27 47% 29.85 0.0
02 20:35 Calm 10.00 Overcast OVC090 47.3 25.3 42% 29.85 0.0
02 20:15 Calm 10.00 Overcast OVC090 48.4 23.9 38% 29.85 0.0
02 19:55 Calm 10.00 Overcast OVC090 48 27.1 44% 29.85 0.0
02 19:35 Calm 10.00 Mostly Cloudy BKN090 51.3 23.2 33% 29.85 0.0
02 19:15 Calm 10.00 Partly Cloudy SCT090 55 18.1 23% 29.85 0.0
02 18:55 W 5 10.00 Partly Cloudy SCT090 56.3 17.6 58.6 52.9 22% 29.85 0.0
02 18:35 NW 5 10.00 Partly Cloudy SCT090 56.5 18 22% 29.86 0.0
02 18:15 W 5 10.00 Fair CLR 57.7 18 21% 29.86 0.0
02 17:55 W 8 10.00 Fair CLR 58.1 18.1 21% 29.87 0.0
02 17:35 W 6 10.00 Partly Cloudy SCT090 57.6 18.3 22% 29.87 0.0
02 17:15 NW 7 10.00 Fair CLR 57.7 17.8 21% 29.88 0.0
02 16:55 N 8 10.00 Fair CLR 58.1 18 21% 29.88 0.0
02 16:35 Calm 10.00 Fair CLR 57.4 17.2 21% 29.88 0.0
02 16:15 W 6 10.00 Fair CLR 58.3 18.5 21% 29.89 0.0
02 15:55 W 8 10.00 Fair CLR 57 17.2 21% 29.89 0.0
02 15:35 W 12 10.00 Fair CLR 56.7 17.1 21% 29.9 0.0
02 15:15 W 3 10.00 Fair CLR 56.3 18.5 23% 29.91 0.0
02 14:55 NW 10 10.00 Fair CLR 56.1 18.1 23% 29.92 0.0
02 14:35 W 6 G 16 10.00 Fair CLR 55.6 18.5 23% 29.93 0.0
02 14:15 NW 9 G 21 10.00 Fair CLR 55.4 18.7 24% 29.94 0.0
02 13:55 NW 12 G 21 10.00 Fair CLR 54.9 18.7 24% 29.95 0.0
02 13:35 W 7 10.00 Fair CLR 53.8 18.9 25% 29.95 0.0
02 13:15 W 9 10.00 Fair CLR 54.1 20.3 27% 29.96 0.0
02 12:55 W 13 10.00 Partly Cloudy SCT070 52.7 19.2 53.1 25.9 27% 29.97 0.0
02 12:35 W 3 10.00 Partly Cloudy SCT070 51.6 18.9 27% 29.98 0.0
02 12:15 SW 6 10.00 Partly Cloudy SCT070 50.9 19 28% 29.99 0.0
02 11:55 NW 7 10.00 Fair CLR 51.4 20.1 29% 29.99 0.0
02 11:35 W 6 G 20 10.00 Fair CLR 50.2 19.8 30% 30 0.0
02 11:15 W 9 10.00 Partly Cloudy SCT065 49.8 19.2 30% 47 30.01 0.0
02 10:55 N 6 10.00 Fair CLR 49.5 19.2 30% 48 30.01 0.0
02 10:35 W 5 10.00 Fair CLR 48.9 19.6 31% 48 30.02 0.0
02 10:15 NW 6 10.00 Fair CLR 47.5 20.3 34% 45 30.02 0.0
02 09:55 W 7 10.00 Fair CLR 46.6 20.3 35% 44 30.02 0.0
02 09:35 NW 3 10.00 Fair CLR 45.7 20.1 36% 30.03 0.0
02 09:15 W 7 10.00 Fair CLR 45 21.2 39% 42 30.04 0.0
02 08:55 W 5 10.00 Fair CLR 43.3 22.1 43% 41 30.05 0.0
02 08:35 W 5 10.00 Fair CLR 41.4 25.5 53% 39 30.05 0.0
02 08:15 Calm 10.00 Fair CLR 36.9 27.1 68% 30.05 0.0
02 07:55 Calm 10.00 Fair CLR 34 28.6 81% 30.06 0.0
02 07:35 Calm 10.00 Fair CLR 31.3 28 88% 30.06 0.0
02 07:15 Calm 10.00 Fair CLR 28.2 27.3 96% 30.06 0.0
02 06:55 Calm 10.00 Fair CLR 25.5 25.2 25.5 19.9 99% 30.07 0.0
02 06:35 Calm 10.00 Fair CLR 22.8 22.8 100% 30.06 0.0
02 06:15 Calm 10.00 Fair CLR 21.2 21.2 100% 30.06 0.0
02 05:55 Calm 10.00 Fair CLR 20.3 20.3 100% 30.06 0.0
Date Time (cdt) Wind (mph) Vis. (mi.) Weather Sky Cond. Air Dwpt Max. Min. Relative Humidity Wind Chill (°F) Heat Index (°F) altimeter (in) sea level (mb) 1 hr 3 hr 6 hr
6 hour
Temperature (ºF) Pressure Precipitation (in)